CGXMF CYQS-CYXU
Flight info
| Callsign | CGXMF |
|---|---|
| Flight time | 0h 10m |
| Altitude | 2000 |
| Route | |
| Aircraft | C172 |
Departure
| Time | 2026-04-28 01:00 |
|---|---|
| Airport | St Thomas Municipal Airport (CYQS) |
Arrival
| Time | 2026-04-28 01:10 |
|---|---|
| Airport | London International Airport (CYXU) |
| Time | Latitude | Longitude | Altitude | Speed | Heading |
|---|---|---|---|---|---|
| 2026-04-28 00:59 | 42.90024 | -81.13953 | 2474 ft | 114 kts | 357° |
| 2026-04-28 01:00 | 42.90837 | -81.13998 | 2498 ft | 120 kts | 357° |
| 2026-04-28 01:00 | 42.91652 | -81.14042 | 2487 ft | 113 kts | 357° |
| 2026-04-28 01:00 | 42.92397 | -81.14080 | 2491 ft | 102 kts | 357° |
| 2026-04-28 01:00 | 42.93087 | -81.14117 | 2487 ft | 97 kts | 357° |
| 2026-04-28 01:01 | 42.93795 | -81.14158 | 2512 ft | 109 kts | 357° |
| 2026-04-28 01:01 | 42.94591 | -81.14201 | 2516 ft | 119 kts | 357° |
| 2026-04-28 01:01 | 42.95441 | -81.14250 | 2509 ft | 124 kts | 357° |
| 2026-04-28 01:01 | 42.96310 | -81.14303 | 2508 ft | 126 kts | 356° |
| 2026-04-28 01:02 | 42.97164 | -81.14564 | 2430 ft | 130 kts | 330° |
| 2026-04-28 01:02 | 42.97874 | -81.15313 | 2361 ft | 129 kts | 321° |
| 2026-04-28 01:02 | 42.98548 | -81.16087 | 2391 ft | 125 kts | 317° |
| 2026-04-28 01:02 | 42.99233 | -81.16832 | 2376 ft | 126 kts | 322° |
| 2026-04-28 01:03 | 42.99918 | -81.17565 | 2398 ft | 124 kts | 321° |
| 2026-04-28 01:03 | 43.00589 | -81.18301 | 2422 ft | 124 kts | 319° |
| 2026-04-28 01:03 | 43.01235 | -81.19052 | 2494 ft | 120 kts | 321° |
| 2026-04-28 01:03 | 43.01895 | -81.19778 | 2509 ft | 123 kts | 321° |
| 2026-04-28 01:04 | 43.02560 | -81.20529 | 2508 ft | 125 kts | 320° |
| 2026-04-28 01:04 | 43.03233 | -81.21283 | 2509 ft | 125 kts | 318° |
| 2026-04-28 01:04 | 43.04038 | -81.21728 | 2395 ft | 134 kts | 358° |
| 2026-04-28 01:04 | 43.04906 | -81.21347 | 2306 ft | 135 kts | 38° |
| 2026-04-28 01:05 | 43.05551 | -81.20517 | 2213 ft | 114 kts | 50° |
| 2026-04-28 01:05 | 43.05839 | -81.19554 | 1975 ft | 110 kts | 88° |
| 2026-04-28 01:05 | 43.05764 | -81.18528 | 1676 ft | 106 kts | 104° |
| 2026-04-28 01:05 | 43.05505 | -81.17636 | 1482 ft | 100 kts | 122° |
| 2026-04-28 01:06 | 43.05023 | -81.16969 | 1255 ft | 100 kts | 141° |
| 2026-04-28 01:06 | 43.04513 | -81.16356 | 1086 ft | 92 kts | 140° |
| 2026-04-28 01:06 | 43.04047 | -81.15795 | 908 ft | 84 kts | 140° |
| 2026-04-28 01:06 | 43.03587 | -81.15265 | 943 ft | 95 kts | 141° |
| 2026-04-28 01:07 | 43.03073 | -81.14600 | 1004 ft | 104 kts | 138° |
| 2026-04-28 01:07 | 43.02680 | -81.13771 | 1062 ft | 114 kts | 82° |
| 2026-04-28 01:07 | 43.03182 | -81.12975 | 1175 ft | 114 kts | 20° |
| 2026-04-28 01:07 | 43.03702 | -81.13064 | 1234 ft | 114 kts | 338° |
| 2026-04-28 01:08 | 43.04596 | -81.13786 | 1385 ft | 116 kts | 326° |
| 2026-04-28 01:08 | 43.05250 | -81.14432 | 1500 ft | 115 kts | 323° |
| 2026-04-28 01:08 | 43.05898 | -81.15122 | 1534 ft | 120 kts | 320° |
| 2026-04-28 01:08 | 43.06524 | -81.15880 | 1599 ft | 120 kts | 317° |
| 2026-04-28 01:09 | 43.06359 | -81.16714 | 1651 ft | 111 kts | 219° |
| 2026-04-28 01:09 | 43.05780 | -81.17191 | 1619 ft | 94 kts | 188° |
| 2026-04-28 01:09 | 43.05122 | -81.16986 | 1334 ft | 106 kts | 151° |
| 2026-04-28 01:09 | 43.04564 | -81.16392 | 1073 ft | 96 kts | 139° |
| 2026-04-28 01:10 | 43.04105 | -81.15847 | 909 ft | 78 kts | 141° |
| 2026-04-28 01:10 | 43.03860 | -81.15598 | 901 ft | 2 kts | 248° |